Startpagina
METAR-TAF:

METAR-TAF

Vliegvelden :

Beiroet, Libanon

breedte: 33-49N, lengte: 035-29E, hoogte: 29 m

Actueel weer

Dit bericht is 1 uur en het 43 minuten geleden gemaakt, om 05:00 UTC
Wind 7 kt uit het zuidzuidwesten
Temperatuur 29°C
Vochtigheid 70%
Druk 1011 hPa
Zicht: 6000 m
Weinig wolken op 2600 ft

METAR: OLBA 280500Z 21007KT 6000 FEW026 29/23 Q1011

Tijdstip: 09:43 (06:43 UTC)

Verwachting

Dit bericht is 2 uur en het 43 minuten geleden gemaakt, om 04:00 UTC
Verwachting geldig van 28 om 06 UTC tot 29 om 12 UTC
Wind 14 kt uit het westzuidwesten
Zicht: 7000 m
Verspreide wolken op 2600 ft
Wijzigt naar
van 28 om 18 UTC tot 28 om 21 UTC
Wind 10 kt uit het zuiden, variërend tussen het zuidzuidoosten en het zuidwesten
Zicht: 8000 m
Weinig wolken op 2600 ft
Wijzigt naar
van 29 om 08 UTC tot 29 om 10 UTC
Wind 10 kt uit het westzuidwesten

TAF: OLBA 280400Z 2806/2912 24014KT 7000 SCT026 BECMG 2818/2821 17010KT 160V230 8000 FEW026 BECMG 2908/2910 24010KT

Waarnemingen en weersverwachtingen van meer dan 4000 vliegvelden (METAR en TAF).

De beschikbare stations zijn de gele en rode punten op de kaart.

Ga met uw muis naar het station om de naam te zien.

Klik dan om waarnemingen en weersverwachtingen te zien.

kaart wijzigen: klik op de groene knoppen met een zwart kruis om in te zoomen, op de groene knop met een streepje om uit te zoomen of op de groene pijlen voor aangrenzende kaarten.


METAR-TAF: